sensor_id;sensor_type;location;lat;lon;timestamp;temperature;humidity
292;DHT22;23311;48.776;9.162;2022-11-14T00:01:19;2.80;95.50
292;DHT22;23311;48.776;9.162;2022-11-14T00:03:49;2.80;95.50
292;DHT22;23311;48.776;9.162;2022-11-14T00:06:17;2.80;95.50
292;DHT22;23311;48.776;9.162;2022-11-14T00:08:45;2.90;95.50
292;DHT22;23311;48.776;9.162;2022-11-14T00:11:13;2.80;95.50
292;DHT22;23311;48.776;9.162;2022-11-14T00:13:43;2.70;95.50
292;DHT22;23311;48.776;9.162;2022-11-14T00:16:12;2.80;95.50
292;DHT22;23311;48.776;9.162;2022-11-14T00:18:40;2.80;95.50
292;DHT22;23311;48.776;9.162;2022-11-14T00:21:08;2.80;95.50
292;DHT22;23311;48.776;9.162;2022-11-14T00:23:36;2.80;95.50
292;DHT22;23311;48.776;9.162;2022-11-14T00:26:04;3.00;95.50
292;DHT22;23311;48.776;9.162;2022-11-14T00:28:32;3.00;95.50
292;DHT22;23311;48.776;9.162;2022-11-14T00:31:02;2.90;95.50
292;DHT22;23311;48.776;9.162;2022-11-14T00:33:30;3.00;95.50
292;DHT22;23311;48.776;9.162;2022-11-14T00:35:58;2.90;95.50
292;DHT22;23311;48.776;9.162;2022-11-14T00:38:26;2.80;95.50
292;DHT22;23311;48.776;9.162;2022-11-14T00:40:54;2.70;95.50
292;DHT22;23311;48.776;9.162;2022-11-14T00:43:22;2.70;95.50
292;DHT22;23311;48.776;9.162;2022-11-14T00:45:50;2.80;95.50
292;DHT22;23311;48.776;9.162;2022-11-14T00:48:20;2.80;95.50
292;DHT22;23311;48.776;9.162;2022-11-14T00:50:48;2.80;95.50
292;DHT22;23311;48.776;9.162;2022-11-14T00:53:16;2.70;95.50
292;DHT22;23311;48.776;9.162;2022-11-14T00:55:44;2.70;95.50
292;DHT22;23311;48.776;9.162;2022-11-14T00:58:12;2.60;95.50
292;DHT22;23311;48.776;9.162;2022-11-14T01:00:40;2.70;95.50
292;DHT22;23311;48.776;9.162;2022-11-14T01:03:08;2.80;95.50
292;DHT22;23311;48.776;9.162;2022-11-14T01:05:41;2.90;95.50
292;DHT22;23311;48.776;9.162;2022-11-14T01:08:09;2.80;95.50
292;DHT22;23311;48.776;9.162;2022-11-14T01:10:38;2.80;95.50
292;DHT22;23311;48.776;9.162;2022-11-14T01:13:07;2.70;95.50
292;DHT22;23311;48.776;9.162;2022-11-14T01:15:38;2.70;95.50
292;DHT22;23311;48.776;9.162;2022-11-14T01:18:06;2.60;95.50
292;DHT22;23311;48.776;9.162;2022-11-14T01:20:34;2.50;95.50
292;DHT22;23311;48.776;9.162;2022-11-14T01:23:06;2.50;95.50
292;DHT22;23311;48.776;9.162;2022-11-14T01:25:35;2.40;95.50
292;DHT22;23311;48.776;9.162;2022-11-14T01:28:05;2.30;95.50
292;DHT22;23311;48.776;9.162;2022-11-14T01:30:33;2.30;95.50
292;DHT22;23311;48.776;9.162;2022-11-14T01:33:01;2.20;95.50
292;DHT22;23311;48.776;9.162;2022-11-14T01:35:30;2.10;95.50
292;DHT22;23311;48.776;9.162;2022-11-14T01:37:58;2.10;95.50
292;DHT22;23311;48.776;9.162;2022-11-14T01:40:28;2.10;95.50
292;DHT22;23311;48.776;9.162;2022-11-14T01:43:22;2.10;95.50
292;DHT22;23311;48.776;9.162;2022-11-14T01:45:53;2.00;95.50
292;DHT22;23311;48.776;9.162;2022-11-14T01:48:25;2.00;95.50
292;DHT22;23311;48.776;9.162;2022-11-14T01:50:57;2.00;95.50
292;DHT22;23311;48.776;9.162;2022-11-14T01:53:26;2.00;95.50
292;DHT22;23311;48.776;9.162;2022-11-14T01:55:58;2.00;95.50
292;DHT22;23311;48.776;9.162;2022-11-14T01:58:28;2.10;95.50
292;DHT22;23311;48.776;9.162;2022-11-14T02:00:58;2.30;95.50
292;DHT22;23311;48.776;9.162;2022-11-14T02:03:27;2.60;95.50
292;DHT22;23311;48.776;9.162;2022-11-14T02:05:56;2.80;95.50
292;DHT22;23311;48.776;9.162;2022-11-14T02:08:25;3.00;95.50
292;DHT22;23311;48.776;9.162;2022-11-14T02:10:55;3.10;95.50
292;DHT22;23311;48.776;9.162;2022-11-14T02:13:23;3.20;95.50
292;DHT22;23311;48.776;9.162;2022-11-14T02:15:51;3.30;95.50
292;DHT22;23311;48.776;9.162;2022-11-14T02:18:19;3.40;95.50
292;DHT22;23311;48.776;9.162;2022-11-14T02:20:48;3.40;95.50
292;DHT22;23311;48.776;9.162;2022-11-14T02:23:24;3.50;95.50
292;DHT22;23311;48.776;9.162;2022-11-14T02:25:54;3.50;95.50
292;DHT22;23311;48.776;9.162;2022-11-14T02:28:22;3.60;95.50
292;DHT22;23311;48.776;9.162;2022-11-14T02:30:50;3.60;95.50
292;DHT22;23311;48.776;9.162;2022-11-14T02:33:18;3.50;95.50
292;DHT22;23311;48.776;9.162;2022-11-14T02:35:48;3.40;95.50
292;DHT22;23311;48.776;9.162;2022-11-14T02:38:16;3.40;95.50
292;DHT22;23311;48.776;9.162;2022-11-14T02:40:44;3.30;95.50
292;DHT22;23311;48.776;9.162;2022-11-14T02:43:12;3.30;95.50
292;DHT22;23311;48.776;9.162;2022-11-14T02:45:40;3.40;95.50
292;DHT22;23311;48.776;9.162;2022-11-14T02:48:08;3.40;95.50
292;DHT22;23311;48.776;9.162;2022-11-14T02:50:36;3.50;95.50
292;DHT22;23311;48.776;9.162;2022-11-14T02:53:06;3.40;95.50
292;DHT22;23311;48.776;9.162;2022-11-14T02:55:34;3.40;95.50
292;DHT22;23311;48.776;9.162;2022-11-14T02:58:02;3.40;95.50
292;DHT22;23311;48.776;9.162;2022-11-14T03:00:30;3.40;95.50
292;DHT22;23311;48.776;9.162;2022-11-14T03:02:58;3.30;95.50
292;DHT22;23311;48.776;9.162;2022-11-14T03:05:26;3.30;95.50
292;DHT22;23311;48.776;9.162;2022-11-14T03:07:55;3.30;95.50
292;DHT22;23311;48.776;9.162;2022-11-14T03:10:24;3.30;95.50
292;DHT22;23311;48.776;9.162;2022-11-14T03:12:53;3.40;95.50
292;DHT22;23311;48.776;9.162;2022-11-14T03:15:21;3.40;95.50
292;DHT22;23311;48.776;9.162;2022-11-14T03:17:49;3.40;95.50
292;DHT22;23311;48.776;9.162;2022-11-14T03:20:18;3.40;95.50
292;DHT22;23311;48.776;9.162;2022-11-14T03:22:46;3.50;95.50
292;DHT22;23311;48.776;9.162;2022-11-14T03:25:14;3.50;95.50
292;DHT22;23311;48.776;9.162;2022-11-14T03:27:43;3.40;95.50
292;DHT22;23311;48.776;9.162;2022-11-14T03:30:12;3.40;95.50
292;DHT22;23311;48.776;9.162;2022-11-14T03:32:41;3.30;95.50
292;DHT22;23311;48.776;9.162;2022-11-14T03:35:09;3.30;95.50
292;DHT22;23311;48.776;9.162;2022-11-14T03:37:37;3.30;95.50
292;DHT22;23311;48.776;9.162;2022-11-14T03:40:07;3.30;95.50
292;DHT22;23311;48.776;9.162;2022-11-14T03:42:35;3.30;95.50
292;DHT22;23311;48.776;9.162;2022-11-14T03:45:05;3.20;95.50
292;DHT22;23311;48.776;9.162;2022-11-14T03:47:33;3.10;95.50
292;DHT22;23311;48.776;9.162;2022-11-14T03:50:02;3.00;95.50
292;DHT22;23311;48.776;9.162;2022-11-14T03:52:30;2.90;95.50
292;DHT22;23311;48.776;9.162;2022-11-14T03:54:58;2.80;95.50
292;DHT22;23311;48.776;9.162;2022-11-14T03:57:26;2.80;95.50
292;DHT22;23311;48.776;9.162;2022-11-14T03:59:54;2.80;95.50
292;DHT22;23311;48.776;9.162;2022-11-14T04:02:23;2.80;95.50
292;DHT22;23311;48.776;9.162;2022-11-14T04:04:51;2.80;95.50
292;DHT22;23311;48.776;9.162;2022-11-14T04:07:19;2.80;95.50
292;DHT22;23311;48.776;9.162;2022-11-14T04:09:48;2.80;95.50
292;DHT22;23311;48.776;9.162;2022-11-14T04:12:17;2.80;95.50
292;DHT22;23311;48.776;9.162;2022-11-14T04:14:45;2.80;95.50
292;DHT22;23311;48.776;9.162;2022-11-14T04:17:13;2.80;95.50
292;DHT22;23311;48.776;9.162;2022-11-14T04:19:43;2.80;95.50
292;DHT22;23311;48.776;9.162;2022-11-14T04:22:11;2.90;95.50
292;DHT22;23311;48.776;9.162;2022-11-14T04:24:39;3.00;95.50
292;DHT22;23311;48.776;9.162;2022-11-14T04:27:07;3.00;95.50
292;DHT22;23311;48.776;9.162;2022-11-14T04:29:35;3.00;95.50
292;DHT22;23311;48.776;9.162;2022-11-14T04:32:03;3.10;95.50
292;DHT22;23311;48.776;9.162;2022-11-14T04:34:32;3.10;95.50
292;DHT22;23311;48.776;9.162;2022-11-14T04:37:01;3.10;95.50
292;DHT22;23311;48.776;9.162;2022-11-14T04:39:29;3.10;95.50
292;DHT22;23311;48.776;9.162;2022-11-14T04:41:57;3.00;95.50
292;DHT22;23311;48.776;9.162;2022-11-14T04:44:25;3.10;95.50
292;DHT22;23311;48.776;9.162;2022-11-14T04:46:53;3.30;95.50
292;DHT22;23311;48.776;9.162;2022-11-14T04:49:21;3.30;95.50
292;DHT22;23311;48.776;9.162;2022-11-14T04:51:50;3.30;95.50
292;DHT22;23311;48.776;9.162;2022-11-14T04:54:19;3.40;95.50
292;DHT22;23311;48.776;9.162;2022-11-14T04:56:47;3.30;95.50
292;DHT22;23311;48.776;9.162;2022-11-14T04:59:15;3.40;95.50
292;DHT22;23311;48.776;9.162;2022-11-14T05:01:46;3.30;95.50
292;DHT22;23311;48.776;9.162;2022-11-14T05:04:15;3.20;95.50
292;DHT22;23311;48.776;9.162;2022-11-14T05:06:43;3.20;95.50
292;DHT22;23311;48.776;9.162;2022-11-14T05:09:11;3.10;95.50
292;DHT22;23311;48.776;9.162;2022-11-14T05:11:40;3.10;95.50
292;DHT22;23311;48.776;9.162;2022-11-14T05:14:08;2.90;95.50
292;DHT22;23311;48.776;9.162;2022-11-14T05:16:36;2.90;95.50
292;DHT22;23311;48.776;9.162;2022-11-14T05:19:04;3.00;95.50
292;DHT22;23311;48.776;9.162;2022-11-14T05:21:32;2.90;95.50
292;DHT22;23311;48.776;9.162;2022-11-14T05:24:00;3.00;95.50
292;DHT22;23311;48.776;9.162;2022-11-14T05:26:28;3.10;95.50
292;DHT22;23311;48.776;9.162;2022-11-14T05:28:58;3.20;95.50
292;DHT22;23311;48.776;9.162;2022-11-14T05:31:26;3.20;95.50
292;DHT22;23311;48.776;9.162;2022-11-14T05:33:54;3.30;95.50
292;DHT22;23311;48.776;9.162;2022-11-14T05:36:22;3.20;95.50
292;DHT22;23311;48.776;9.162;2022-11-14T05:38:50;3.20;95.50
292;DHT22;23311;48.776;9.162;2022-11-14T05:41:19;3.10;95.50
292;DHT22;23311;48.776;9.162;2022-11-14T05:43:47;3.10;95.50
292;DHT22;23311;48.776;9.162;2022-11-14T05:46:16;3.20;95.50
292;DHT22;23311;48.776;9.162;2022-11-14T05:48:44;3.20;95.50
292;DHT22;23311;48.776;9.162;2022-11-14T05:51:12;3.20;95.50
292;DHT22;23311;48.776;9.162;2022-11-14T05:53:40;3.30;95.50
292;DHT22;23311;48.776;9.162;2022-11-14T05:56:10;3.40;95.50
292;DHT22;23311;48.776;9.162;2022-11-14T05:58:38;3.30;95.50
292;DHT22;23311;48.776;9.162;2022-11-14T06:01:08;3.40;95.50
292;DHT22;23311;48.776;9.162;2022-11-14T06:03:39;3.40;95.50
292;DHT22;23311;48.776;9.162;2022-11-14T06:06:09;3.40;95.50
292;DHT22;23311;48.776;9.162;2022-11-14T06:08:38;3.70;95.50
292;DHT22;23311;48.776;9.162;2022-11-14T06:11:08;3.80;95.50
292;DHT22;23311;48.776;9.162;2022-11-14T06:13:36;3.90;95.50
292;DHT22;23311;48.776;9.162;2022-11-14T06:16:06;4.10;95.50
292;DHT22;23311;48.776;9.162;2022-11-14T06:18:35;4.20;95.50
292;DHT22;23311;48.776;9.162;2022-11-14T06:21:06;4.30;95.50
292;DHT22;23311;48.776;9.162;2022-11-14T06:23:35;4.50;95.50
292;DHT22;23311;48.776;9.162;2022-11-14T06:26:05;4.40;95.50
292;DHT22;23311;48.776;9.162;2022-11-14T06:28:33;4.40;95.50
292;DHT22;23311;48.776;9.162;2022-11-14T06:31:02;4.40;95.50
292;DHT22;23311;48.776;9.162;2022-11-14T06:33:33;4.50;95.50
292;DHT22;23311;48.776;9.162;2022-11-14T06:36:05;4.50;95.50
292;DHT22;23311;48.776;9.162;2022-11-14T06:38:34;4.60;95.50
292;DHT22;23311;48.776;9.162;2022-11-14T06:41:04;4.80;95.50
292;DHT22;23311;48.776;9.162;2022-11-14T06:43:32;4.90;95.50
292;DHT22;23311;48.776;9.162;2022-11-14T06:46:01;5.00;95.50
292;DHT22;23311;48.776;9.162;2022-11-14T06:48:30;5.10;95.50
292;DHT22;23311;48.776;9.162;2022-11-14T06:50:59;5.30;95.50
292;DHT22;23311;48.776;9.162;2022-11-14T06:53:32;5.40;95.50
292;DHT22;23311;48.776;9.162;2022-11-14T06:56:02;5.50;95.50
292;DHT22;23311;48.776;9.162;2022-11-14T06:58:32;5.50;95.50
292;DHT22;23311;48.776;9.162;2022-11-14T07:01:04;5.60;95.50
292;DHT22;23311;48.776;9.162;2022-11-14T07:03:33;5.60;95.50
292;DHT22;23311;48.776;9.162;2022-11-14T07:06:02;5.50;95.50
292;DHT22;23311;48.776;9.162;2022-11-14T07:08:32;5.50;95.50
292;DHT22;23311;48.776;9.162;2022-11-14T07:11:01;5.40;95.50
292;DHT22;23311;48.776;9.162;2022-11-14T07:13:31;5.40;95.50
292;DHT22;23311;48.776;9.162;2022-11-14T07:15:59;5.40;95.50
292;DHT22;23311;48.776;9.162;2022-11-14T07:18:28;5.30;95.50
292;DHT22;23311;48.776;9.162;2022-11-14T07:20:59;5.30;95.50
292;DHT22;23311;48.776;9.162;2022-11-14T07:23:28;5.30;95.50
292;DHT22;23311;48.776;9.162;2022-11-14T07:26:00;5.30;95.50
292;DHT22;23311;48.776;9.162;2022-11-14T07:28:30;5.30;95.50
292;DHT22;23311;48.776;9.162;2022-11-14T07:31:01;5.30;95.50
292;DHT22;23311;48.776;9.162;2022-11-14T07:33:30;5.30;95.50
292;DHT22;23311;48.776;9.162;2022-11-14T07:35:58;5.20;95.50
292;DHT22;23311;48.776;9.162;2022-11-14T07:38:26;5.10;95.50
292;DHT22;23311;48.776;9.162;2022-11-14T07:40:55;5.10;95.50
292;DHT22;23311;48.776;9.162;2022-11-14T07:43:28;5.00;95.50
292;DHT22;23311;48.776;9.162;2022-11-14T07:45:58;5.00;95.50
292;DHT22;23311;48.776;9.162;2022-11-14T07:48:26;5.20;95.50
292;DHT22;23311;48.776;9.162;2022-11-14T07:50:57;5.40;95.50
292;DHT22;23311;48.776;9.162;2022-11-14T07:53:26;5.60;95.50
292;DHT22;23311;48.776;9.162;2022-11-14T07:55:55;5.80;95.50
292;DHT22;23311;48.776;9.162;2022-11-14T07:58:23;6.10;95.50
292;DHT22;23311;48.776;9.162;2022-11-14T08:00:53;6.30;95.50
292;DHT22;23311;48.776;9.162;2022-11-14T08:03:21;6.40;95.50
292;DHT22;23311;48.776;9.162;2022-11-14T08:05:49;6.50;95.50
292;DHT22;23311;48.776;9.162;2022-11-14T08:08:17;6.50;95.50
292;DHT22;23311;48.776;9.162;2022-11-14T08:10:45;6.50;95.50
292;DHT22;23311;48.776;9.162;2022-11-14T08:13:13;6.50;95.50
292;DHT22;23311;48.776;9.162;2022-11-14T08:16:04;6.60;95.50
292;DHT22;23311;48.776;9.162;2022-11-14T08:18:39;6.60;95.50
292;DHT22;23311;48.776;9.162;2022-11-14T08:21:07;6.70;95.50
292;DHT22;23311;48.776;9.162;2022-11-14T08:23:35;6.70;95.50
292;DHT22;23311;48.776;9.162;2022-11-14T08:26:04;6.80;95.50
292;DHT22;23311;48.776;9.162;2022-11-14T08:28:32;6.80;95.50
292;DHT22;23311;48.776;9.162;2022-11-14T08:31:02;6.70;95.50
292;DHT22;23311;48.776;9.162;2022-11-14T08:33:32;6.80;95.50
292;DHT22;23311;48.776;9.162;2022-11-14T08:36:00;6.80;95.50
292;DHT22;23311;48.776;9.162;2022-11-14T08:38:30;6.80;95.50
292;DHT22;23311;48.776;9.162;2022-11-14T08:40:59;7.00;95.50
292;DHT22;23311;48.776;9.162;2022-11-14T08:43:27;7.10;95.50
292;DHT22;23311;48.776;9.162;2022-11-14T08:45:56;7.20;95.50
292;DHT22;23311;48.776;9.162;2022-11-14T08:48:27;7.40;95.50
292;DHT22;23311;48.776;9.162;2022-11-14T08:51:01;7.50;95.50
292;DHT22;23311;48.776;9.162;2022-11-14T08:53:30;7.50;95.50
292;DHT22;23311;48.776;9.162;2022-11-14T08:55:58;7.50;95.50
292;DHT22;23311;48.776;9.162;2022-11-14T08:58:27;7.60;95.50
292;DHT22;23311;48.776;9.162;2022-11-14T09:00:59;7.60;95.50
292;DHT22;23311;48.776;9.162;2022-11-14T09:03:27;7.70;95.50
292;DHT22;23311;48.776;9.162;2022-11-14T09:05:57;7.70;95.50
292;DHT22;23311;48.776;9.162;2022-11-14T09:08:26;7.80;95.50
292;DHT22;23311;48.776;9.162;2022-11-14T09:10:58;7.80;95.50
292;DHT22;23311;48.776;9.162;2022-11-14T09:13:31;8.00;95.50
292;DHT22;23311;48.776;9.162;2022-11-14T09:16:00;8.00;95.50
292;DHT22;23311;48.776;9.162;2022-11-14T09:18:28;8.10;95.50
292;DHT22;23311;48.776;9.162;2022-11-14T09:21:00;8.10;95.50
292;DHT22;23311;48.776;9.162;2022-11-14T09:23:28;8.20;95.50
292;DHT22;23311;48.776;9.162;2022-11-14T09:25:58;8.20;95.50
292;DHT22;23311;48.776;9.162;2022-11-14T09:28:29;8.30;95.50
292;DHT22;23311;48.776;9.162;2022-11-14T09:31:01;8.30;95.50
292;DHT22;23311;48.776;9.162;2022-11-14T09:33:29;8.40;95.50
292;DHT22;23311;48.776;9.162;2022-11-14T09:35:59;8.40;95.50
292;DHT22;23311;48.776;9.162;2022-11-14T09:38:28;8.50;95.50
292;DHT22;23311;48.776;9.162;2022-11-14T09:41:15;8.60;95.50
292;DHT22;23311;48.776;9.162;2022-11-14T09:44:20;8.60;95.50
292;DHT22;23311;48.776;9.162;2022-11-14T09:46:55;8.70;95.50
292;DHT22;23311;48.776;9.162;2022-11-14T09:49:29;8.80;95.50
292;DHT22;23311;48.776;9.162;2022-11-14T09:52:08;8.90;95.50
292;DHT22;23311;48.776;9.162;2022-11-14T09:54:44;9.00;95.50
292;DHT22;23311;48.776;9.162;2022-11-14T09:57:16;9.20;95.50
292;DHT22;23311;48.776;9.162;2022-11-14T09:59:44;9.30;95.50
292;DHT22;23311;48.776;9.162;2022-11-14T10:02:20;9.30;95.50
292;DHT22;23311;48.776;9.162;2022-11-14T10:05:00;9.40;95.50
292;DHT22;23311;48.776;9.162;2022-11-14T10:07:39;9.50;95.50
292;DHT22;23311;48.776;9.162;2022-11-14T10:10:25;9.70;95.50
292;DHT22;23311;48.776;9.162;2022-11-14T10:13:10;9.80;95.50
292;DHT22;23311;48.776;9.162;2022-11-14T10:15:46;9.90;95.50
292;DHT22;23311;48.776;9.162;2022-11-14T10:18:30;10.00;95.50
292;DHT22;23311;48.776;9.162;2022-11-14T10:21:11;10.20;95.50
292;DHT22;23311;48.776;9.162;2022-11-14T10:23:49;10.40;95.50
292;DHT22;23311;48.776;9.162;2022-11-14T10:26:25;10.70;95.50
292;DHT22;23311;48.776;9.162;2022-11-14T10:29:21;10.90;95.50
292;DHT22;23311;48.776;9.162;2022-11-14T10:32:00;11.00;95.50
292;DHT22;23311;48.776;9.162;2022-11-14T10:34:35;10.90;95.50
292;DHT22;23311;48.776;9.162;2022-11-14T10:37:12;10.70;95.50
292;DHT22;23311;48.776;9.162;2022-11-14T10:39:46;10.70;95.50
292;DHT22;23311;48.776;9.162;2022-11-14T10:42:21;10.80;95.50
292;DHT22;23311;48.776;9.162;2022-11-14T10:44:55;10.80;95.50
292;DHT22;23311;48.776;9.162;2022-11-14T10:47:25;10.90;95.50
292;DHT22;23311;48.776;9.162;2022-11-14T10:49:59;10.90;95.50
292;DHT22;23311;48.776;9.162;2022-11-14T10:52:38;10.90;95.50
292;DHT22;23311;48.776;9.162;2022-11-14T10:55:13;10.90;95.50
292;DHT22;23311;48.776;9.162;2022-11-14T10:57:42;11.20;95.50
292;DHT22;23311;48.776;9.162;2022-11-14T11:00:14;11.50;95.50
292;DHT22;23311;48.776;9.162;2022-11-14T11:02:50;11.60;95.50
292;DHT22;23311;48.776;9.162;2022-11-14T11:05:21;11.60;95.50
292;DHT22;23311;48.776;9.162;2022-11-14T11:07:51;11.80;95.50
292;DHT22;23311;48.776;9.162;2022-11-14T11:10:58;12.10;95.50
292;DHT22;23311;48.776;9.162;2022-11-14T11:13:51;12.30;95.50
292;DHT22;23311;48.776;9.162;2022-11-14T11:16:21;12.30;95.50
292;DHT22;23311;48.776;9.162;2022-11-14T11:18:49;12.30;95.50
292;DHT22;23311;48.776;9.162;2022-11-14T11:21:20;12.50;95.50
292;DHT22;23311;48.776;9.162;2022-11-14T11:23:50;12.50;95.50
292;DHT22;23311;48.776;9.162;2022-11-14T11:26:23;12.60;95.50
292;DHT22;23311;48.776;9.162;2022-11-14T11:29:06;12.70;95.50
292;DHT22;23311;48.776;9.162;2022-11-14T11:31:51;12.60;95.50
292;DHT22;23311;48.776;9.162;2022-11-14T11:34:23;12.70;95.50
292;DHT22;23311;48.776;9.162;2022-11-14T11:36:56;12.70;95.50
292;DHT22;23311;48.776;9.162;2022-11-14T11:39:28;12.60;95.50
292;DHT22;23311;48.776;9.162;2022-11-14T11:42:01;12.50;95.50
292;DHT22;23311;48.776;9.162;2022-11-14T11:44:39;12.40;95.50
292;DHT22;23311;48.776;9.162;2022-11-14T11:47:13;12.40;95.50
292;DHT22;23311;48.776;9.162;2022-11-14T11:49:45;12.40;95.50
292;DHT22;23311;48.776;9.162;2022-11-14T11:52:27;12.30;95.50
292;DHT22;23311;48.776;9.162;2022-11-14T11:55:02;12.30;95.50
292;DHT22;23311;48.776;9.162;2022-11-14T11:57:37;12.30;95.50
292;DHT22;23311;48.776;9.162;2022-11-14T12:00:14;12.30;95.50
292;DHT22;23311;48.776;9.162;2022-11-14T12:02:45;12.20;95.50
292;DHT22;23311;48.776;9.162;2022-11-14T12:05:17;12.10;95.50
292;DHT22;23311;48.776;9.162;2022-11-14T12:07:56;12.00;95.50
292;DHT22;23311;48.776;9.162;2022-11-14T12:10:27;11.90;95.50
292;DHT22;23311;48.776;9.162;2022-11-14T12:13:30;11.90;95.50
292;DHT22;23311;48.776;9.162;2022-11-14T12:16:17;11.80;95.50
292;DHT22;23311;48.776;9.162;2022-11-14T12:22:03;12.10;95.50
292;DHT22;23311;48.776;9.162;2022-11-14T12:24:57;12.30;95.50
292;DHT22;23311;48.776;9.162;2022-11-14T12:27:48;12.60;95.50
292;DHT22;23311;48.776;9.162;2022-11-14T12:30:23;13.00;95.50
292;DHT22;23311;48.776;9.162;2022-11-14T12:32:54;13.10;95.50
292;DHT22;23311;48.776;9.162;2022-11-14T12:35:27;13.60;95.50
292;DHT22;23311;48.776;9.162;2022-11-14T12:37:59;13.90;95.50
292;DHT22;23311;48.776;9.162;2022-11-14T12:40:29;14.10;95.50
292;DHT22;23311;48.776;9.162;2022-11-14T12:43:00;14.00;95.50
292;DHT22;23311;48.776;9.162;2022-11-14T12:45:58;13.80;95.50
292;DHT22;23311;48.776;9.162;2022-11-14T12:48:32;13.50;95.50
292;DHT22;23311;48.776;9.162;2022-11-14T12:51:02;13.40;95.50
292;DHT22;23311;48.776;9.162;2022-11-14T12:53:41;13.30;95.50
292;DHT22;23311;48.776;9.162;2022-11-14T12:56:36;13.20;95.50
292;DHT22;23311;48.776;9.162;2022-11-14T12:59:27;13.30;95.50
292;DHT22;23311;48.776;9.162;2022-11-14T13:05:19;13.30;95.50
292;DHT22;23311;48.776;9.162;2022-11-14T13:08:00;13.30;95.50
292;DHT22;23311;48.776;9.162;2022-11-14T13:10:36;13.20;95.50
292;DHT22;23311;48.776;9.162;2022-11-14T13:13:07;13.20;95.50
292;DHT22;23311;48.776;9.162;2022-11-14T13:15:54;13.20;95.50
292;DHT22;23311;48.776;9.162;2022-11-14T13:18:52;13.20;95.50
292;DHT22;23311;48.776;9.162;2022-11-14T13:25:15;12.90;95.50
292;DHT22;23311;48.776;9.162;2022-11-14T13:27:45;12.70;95.50
292;DHT22;23311;48.776;9.162;2022-11-14T13:31:04;12.70;95.50
292;DHT22;23311;48.776;9.162;2022-11-14T13:33:39;12.70;95.50
292;DHT22;23311;48.776;9.162;2022-11-14T13:36:10;12.80;95.50
292;DHT22;23311;48.776;9.162;2022-11-14T13:39:02;12.70;95.50
292;DHT22;23311;48.776;9.162;2022-11-14T13:42:15;12.80;95.50
292;DHT22;23311;48.776;9.162;2022-11-14T13:45:05;12.80;95.50
292;DHT22;23311;48.776;9.162;2022-11-14T13:48:13;12.80;95.50
292;DHT22;23311;48.776;9.162;2022-11-14T13:50:49;12.90;95.50
292;DHT22;23311;48.776;9.162;2022-11-14T13:53:22;13.00;95.50
292;DHT22;23311;48.776;9.162;2022-11-14T13:55:55;13.20;95.50
292;DHT22;23311;48.776;9.162;2022-11-14T14:01:45;13.30;95.50
292;DHT22;23311;48.776;9.162;2022-11-14T14:04:25;13.30;95.50
292;DHT22;23311;48.776;9.162;2022-11-14T14:07:03;13.30;95.50
292;DHT22;23311;48.776;9.162;2022-11-14T14:09:39;13.40;95.50
292;DHT22;23311;48.776;9.162;2022-11-14T14:15:19;13.30;95.50
292;DHT22;23311;48.776;9.162;2022-11-14T14:17:58;13.20;95.50
292;DHT22;23311;48.776;9.162;2022-11-14T14:20:37;13.10;95.50
292;DHT22;23311;48.776;9.162;2022-11-14T14:23:16;13.00;95.50
292;DHT22;23311;48.776;9.162;2022-11-14T14:25:54;13.00;95.50
292;DHT22;23311;48.776;9.162;2022-11-14T14:28:35;13.10;95.50
292;DHT22;23311;48.776;9.162;2022-11-14T14:31:11;13.10;95.50
292;DHT22;23311;48.776;9.162;2022-11-14T14:33:40;13.10;95.50
292;DHT22;23311;48.776;9.162;2022-11-14T14:36:24;13.10;95.50
292;DHT22;23311;48.776;9.162;2022-11-14T14:39:10;13.30;95.50
292;DHT22;23311;48.776;9.162;2022-11-14T14:41:43;13.20;95.50
292;DHT22;23311;48.776;9.162;2022-11-14T14:44:19;13.10;95.50
292;DHT22;23311;48.776;9.162;2022-11-14T14:46:48;13.10;95.50
292;DHT22;23311;48.776;9.162;2022-11-14T14:49:20;13.00;95.50
292;DHT22;23311;48.776;9.162;2022-11-14T14:51:49;13.00;95.50
292;DHT22;23311;48.776;9.162;2022-11-14T14:54:25;12.90;95.50
292;DHT22;23311;48.776;9.162;2022-11-14T14:56:58;12.80;95.50
292;DHT22;23311;48.776;9.162;2022-11-14T14:59:28;12.60;95.50
292;DHT22;23311;48.776;9.162;2022-11-14T15:01:57;12.50;95.50
292;DHT22;23311;48.776;9.162;2022-11-14T15:04:27;12.60;95.50
292;DHT22;23311;48.776;9.162;2022-11-14T15:06:55;12.60;95.50
292;DHT22;23311;48.776;9.162;2022-11-14T15:09:25;12.60;95.50
292;DHT22;23311;48.776;9.162;2022-11-14T15:11:58;12.60;95.50
292;DHT22;23311;48.776;9.162;2022-11-14T15:14:29;12.50;95.50
292;DHT22;23311;48.776;9.162;2022-11-14T15:16:59;12.40;95.50
292;DHT22;23311;48.776;9.162;2022-11-14T15:19:31;12.40;95.50
292;DHT22;23311;48.776;9.162;2022-11-14T15:22:18;12.50;95.50
292;DHT22;23311;48.776;9.162;2022-11-14T15:27:51;12.30;95.50
292;DHT22;23311;48.776;9.162;2022-11-14T15:30:22;12.20;95.50
292;DHT22;23311;48.776;9.162;2022-11-14T15:32:52;12.10;95.50
292;DHT22;23311;48.776;9.162;2022-11-14T15:35:26;12.20;95.50
292;DHT22;23311;48.776;9.162;2022-11-14T15:38:06;12.20;95.50
292;DHT22;23311;48.776;9.162;2022-11-14T15:41:17;12.10;95.50
292;DHT22;23311;48.776;9.162;2022-11-14T15:43:49;11.90;95.50
292;DHT22;23311;48.776;9.162;2022-11-14T15:46:36;11.70;95.50
292;DHT22;23311;48.776;9.162;2022-11-14T15:49:15;11.40;95.50
292;DHT22;23311;48.776;9.162;2022-11-14T15:51:47;11.30;95.50
292;DHT22;23311;48.776;9.162;2022-11-14T15:54:22;11.20;95.50
292;DHT22;23311;48.776;9.162;2022-11-14T15:56:51;11.10;95.50
292;DHT22;23311;48.776;9.162;2022-11-14T15:59:21;11.10;95.50
292;DHT22;23311;48.776;9.162;2022-11-14T16:01:51;10.90;95.50
292;DHT22;23311;48.776;9.162;2022-11-14T16:04:21;10.90;95.50
292;DHT22;23311;48.776;9.162;2022-11-14T16:06:50;10.60;95.50
292;DHT22;23311;48.776;9.162;2022-11-14T16:09:20;10.40;95.50
292;DHT22;23311;48.776;9.162;2022-11-14T16:11:48;10.30;95.50
292;DHT22;23311;48.776;9.162;2022-11-14T16:14:16;10.30;95.50
292;DHT22;23311;48.776;9.162;2022-11-14T16:16:45;10.40;95.50
292;DHT22;23311;48.776;9.162;2022-11-14T16:19:14;10.40;95.50
292;DHT22;23311;48.776;9.162;2022-11-14T16:21:43;10.30;95.50
292;DHT22;23311;48.776;9.162;2022-11-14T16:24:14;10.10;95.50
292;DHT22;23311;48.776;9.162;2022-11-14T16:26:43;9.90;95.50
292;DHT22;23311;48.776;9.162;2022-11-14T16:29:11;9.80;95.50
292;DHT22;23311;48.776;9.162;2022-11-14T16:31:39;9.80;95.50
292;DHT22;23311;48.776;9.162;2022-11-14T16:34:14;9.90;95.50
292;DHT22;23311;48.776;9.162;2022-11-14T16:36:42;10.10;95.50
292;DHT22;23311;48.776;9.162;2022-11-14T16:39:11;10.20;95.50
292;DHT22;23311;48.776;9.162;2022-11-14T16:41:40;10.10;95.50
292;DHT22;23311;48.776;9.162;2022-11-14T16:44:13;10.10;95.50
292;DHT22;23311;48.776;9.162;2022-11-14T16:46:42;10.00;95.50
292;DHT22;23311;48.776;9.162;2022-11-14T16:49:15;9.90;95.50
292;DHT22;23311;48.776;9.162;2022-11-14T16:51:47;9.80;95.50
292;DHT22;23311;48.776;9.162;2022-11-14T16:54:17;9.70;95.50
292;DHT22;23311;48.776;9.162;2022-11-14T16:56:46;9.80;95.50
292;DHT22;23311;48.776;9.162;2022-11-14T16:59:14;9.80;95.50
292;DHT22;23311;48.776;9.162;2022-11-14T17:01:43;9.90;95.50
292;DHT22;23311;48.776;9.162;2022-11-14T17:04:11;9.90;95.50